Time;durP1;ratioP1;P1;durP2;ratioP2;P2;SDS_P1;SDS_P2;PMS_P1;PMS_P2;Temp;Humidity;BMP_temperature;BMP_pressure;BME280_temperature;BME280_humidity;BME280_pressure;Samples;Min_cycle;Max_cycle;Signal;HPM_P1;HPM_P2
2023/08/06 00:01:38;;;;;;;9.38;2.58;;;;;;;15.66;100.00;100287.25;5277761;28;20501;-74
2023/08/06 00:04:09;;;;;;;9.00;2.70;;;;;;;15.66;100.00;100288.13;5283952;28;20028;-74
2023/08/06 00:06:39;;;;;;;9.07;2.28;;;;;;;15.65;100.00;100278.31;5287353;28;20031;-75
2023/08/06 00:09:10;;;;;;;8.32;2.30;;;;;;;15.64;100.00;100279.38;5287615;28;20039;-74
2023/08/06 00:11:41;;;;;;;5.80;2.00;;;;;;;15.60;100.00;100283.50;5268862;28;20027;-74
2023/08/06 00:14:11;;;;;;;11.75;2.72;;;;;;;15.62;100.00;100276.03;5281097;28;20126;-74
2023/08/06 00:16:44;;;;;;;6.40;2.25;;;;;;;15.63;100.00;100280.44;5279903;28;20012;-74
2023/08/06 00:19:15;;;;;;;10.15;1.80;;;;;;;15.62;100.00;100276.03;5274526;28;20026;-74
2023/08/06 00:21:45;;;;;;;7.03;2.50;;;;;;;15.60;100.00;100272.69;5287446;28;20020;-75
2023/08/06 00:24:16;;;;;;;8.75;2.63;;;;;;;15.62;100.00;100267.94;5287429;28;20023;-74
2023/08/06 00:26:46;;;;;;;8.27;2.50;;;;;;;15.60;100.00;100267.28;5286539;28;20030;-75
2023/08/06 00:29:17;;;;;;;8.00;2.45;;;;;;;15.59;100.00;100265.63;5286768;28;20023;-74
2023/08/06 00:31:47;;;;;;;7.15;2.30;;;;;;;15.59;100.00;100267.50;5287480;28;20024;-74
2023/08/06 00:34:18;;;;;;;4.70;2.60;;;;;;;15.61;100.00;100265.41;5287339;28;20020;-74
2023/08/06 00:36:48;;;;;;;11.63;2.78;;;;;;;15.59;100.00;100268.34;5286261;28;20027;-74
2023/08/06 00:39:19;;;;;;;7.47;2.47;;;;;;;15.60;100.00;100263.75;5286839;28;20393;-74
2023/08/06 00:41:50;;;;;;;7.55;2.60;;;;;;;15.60;100.00;100263.75;5279917;28;20036;-75
2023/08/06 00:44:20;;;;;;;12.05;2.70;;;;;;;15.58;100.00;100261.28;5280528;28;20334;-74
2023/08/06 00:46:51;;;;;;;8.43;2.30;;;;;;;15.61;100.00;100268.13;5286560;28;20023;-74
2023/08/06 00:49:21;;;;;;;7.40;2.70;;;;;;;15.62;100.00;100261.69;5284043;28;20031;-74
2023/08/06 00:51:52;;;;;;;8.05;2.38;;;;;;;15.64;100.00;100268.56;5275739;28;20019;-74
2023/08/06 00:54:24;;;;;;;5.25;2.55;;;;;;;15.64;100.00;100265.84;5283274;28;20024;-74
2023/08/06 00:56:56;;;;;;;8.98;2.58;;;;;;;15.60;100.00;100264.59;5265279;28;20023;-75
2023/08/06 00:59:27;;;;;;;8.68;2.72;;;;;;;15.63;100.00;100264.19;5284283;28;20023;-74
2023/08/06 01:01:57;;;;;;;8.10;2.67;;;;;;;15.64;100.00;100262.31;5286727;28;20067;-75
2023/08/06 01:04:28;;;;;;;7.40;2.78;;;;;;;15.66;100.00;100271.03;5286822;28;20031;-75
2023/08/06 01:07:21;;;;;;;8.07;2.83;;;;;;;15.65;100.00;100269.38;5286493;28;20017;-75
2023/08/06 01:10:11;;;;;;;5.78;2.90;;;;;;;15.67;100.00;100268.16;5275813;28;20488;-75
2023/08/06 01:12:59;;;;;;;8.45;2.75;;;;;;;15.69;100.00;100270.63;5286501;28;20020;-75
2023/08/06 01:15:38;;;;;;;8.70;2.83;;;;;;;15.67;100.00;100265.44;5286403;28;20035;-75
2023/08/06 01:18:08;;;;;;;9.10;3.85;;;;;;;15.66;100.00;100254.81;5286395;28;20557;-75
2023/08/06 01:20:39;;;;;;;8.18;3.00;;;;;;;15.70;100.00;100265.00;5285752;28;20106;-75
2023/08/06 01:23:10;;;;;;;8.15;3.10;;;;;;;15.63;100.00;100256.09;5273533;28;20074;-75
2023/08/06 01:26:18;;;;;;;7.90;3.03;;;;;;;15.69;100.00;100251.69;5278579;28;20101;-75
2023/08/06 01:29:05;;;;;;;11.10;3.45;;;;;;;15.69;100.00;100255.22;5283560;28;20023;-75
2023/08/06 01:31:38;;;;;;;12.52;3.53;;;;;;;15.69;100.00;100263.34;5286244;28;20480;-74
2023/08/06 01:34:13;;;;;;;8.90;2.83;;;;;;;15.68;100.00;100256.28;5286300;28;20051;-74
2023/08/06 01:36:45;;;;;;;9.50;3.35;;;;;;;15.70;100.00;100267.69;5285642;28;20446;-75
2023/08/06 01:39:15;;;;;;;7.90;3.63;;;;;;;15.67;100.00;100251.91;5285892;28;20042;-75
2023/08/06 01:41:46;;;;;;;13.52;3.45;;;;;;;15.67;100.00;100260.03;5284951;28;20020;-75
2023/08/06 01:44:17;;;;;;;10.65;4.10;;;;;;;15.70;100.00;100261.47;5286071;28;20030;-75
2023/08/06 01:46:48;;;;;;;12.07;3.95;;;;;;;15.72;100.00;100256.69;5278257;28;20358;-74
2023/08/06 01:49:18;;;;;;;8.50;3.42;;;;;;;15.72;100.00;100259.41;5279608;28;20015;-74
2023/08/06 01:51:49;;;;;;;8.20;3.08;;;;;;;15.70;100.00;100258.75;5285858;28;20027;-75
2023/08/06 01:54:20;;;;;;;12.07;3.70;;;;;;;15.68;100.00;100258.16;5286201;28;20025;-75
2023/08/06 01:56:50;;;;;;;11.02;3.70;;;;;;;15.67;100.00;100253.78;5275757;28;20085;-75
2023/08/06 01:59:21;;;;;;;7.38;3.47;;;;;;;15.67;100.00;100253.78;5282169;28;20114;-75
2023/08/06 02:01:52;;;;;;;10.40;4.03;;;;;;;15.67;100.00;100257.31;5286458;28;20098;-75
2023/08/06 02:04:22;;;;;;;10.80;3.20;;;;;;;15.70;100.00;100256.88;5285440;28;20046;-75
2023/08/06 02:06:53;;;;;;;9.20;3.53;;;;;;;15.71;100.00;100257.72;5285301;28;20485;-75
2023/08/06 02:09:24;;;;;;;6.65;3.65;;;;;;;15.71;100.00;100263.13;5285614;28;20666;-75
2023/08/06 02:11:54;;;;;;;12.13;4.07;;;;;;;15.72;100.00;100262.94;5285571;28;20024;-75
2023/08/06 02:14:25;;;;;;;5.53;3.40;;;;;;;15.73;100.00;100259.16;5286171;28;20399;-75
2023/08/06 02:16:56;;;;;;;11.38;3.63;;;;;;;15.74;100.00;100263.53;5285026;28;20028;-75
2023/08/06 02:19:26;;;;;;;8.48;3.13;;;;;;;15.76;100.00;100264.16;5286056;28;20023;-75
2023/08/06 02:21:57;;;;;;;7.15;3.33;;;;;;;15.78;100.00;100262.06;5285656;28;20026;-75
2023/08/06 02:24:28;;;;;;;9.45;4.22;;;;;;;15.78;100.00;100262.06;5285935;28;20102;-75
2023/08/06 02:26:58;;;;;;;13.95;4.10;;;;;;;15.79;100.00;100262.88;5266880;28;20030;-75
2023/08/06 02:29:29;;;;;;;11.15;4.25;;;;;;;15.82;100.00;100264.34;5285350;28;20026;-75
2023/08/06 02:32:02;;;;;;;9.02;4.43;;;;;;;15.82;100.00;100264.34;5285524;28;20092;-75
2023/08/06 02:34:32;;;;;;;12.13;4.20;;;;;;;15.81;100.00;100263.50;5285408;28;20042;-75
2023/08/06 02:37:03;;;;;;;10.65;4.32;;;;;;;15.83;100.00;100276.81;5284980;28;20019;-77
2023/08/06 02:39:39;;;;;;;10.50;4.15;;;;;;;15.82;100.00;100261.66;5285193;28;20034;-75
2023/08/06 02:42:09;;;;;;;11.80;4.40;;;;;;;15.84;100.00;100264.94;5285594;28;20068;-75
2023/08/06 02:44:40;;;;;;;10.27;4.60;;;;;;;15.82;100.00;100265.19;5271983;28;20027;-75
2023/08/06 02:47:11;;;;;;;12.85;4.93;;;;;;;15.85;100.00;100269.31;5273387;28;20016;-75
2023/08/06 02:49:41;;;;;;;12.43;4.55;;;;;;;15.86;100.00;100266.38;5265179;28;20027;-75
2023/08/06 02:52:12;;;;;;;9.65;3.90;;;;;;;15.89;100.00;100276.78;5285416;28;20044;-75
2023/08/06 02:54:42;;;;;;;10.25;5.13;;;;;;;15.89;100.00;100275.97;5289320;28;20016;-74
2023/08/06 03:00:02;;;;;;;11.10;4.32;;;;;;;15.89;100.00;100275.97;5289295;28;20393;-75
2023/08/06 03:02:32;;;;;;;12.50;4.75;;;;;;;15.88;100.00;100272.44;5289209;28;20027;-74
2023/08/06 03:05:04;;;;;;;10.88;5.40;;;;;;;15.89;100.00;100275.97;5289005;28;20028;-75
2023/08/06 03:07:36;;;;;;;10.35;4.97;;;;;;;15.90;100.00;100274.91;5288660;28;20027;-75
2023/08/06 03:10:07;;;;;;;9.30;4.82;;;;;;;15.93;100.00;100271.78;5288780;28;20023;-75
2023/08/06 03:12:38;;;;;;;10.98;5.05;;;;;;;15.90;100.00;100267.63;5275761;28;20404;-75
2023/08/06 03:15:09;;;;;;;11.57;4.82;;;;;;;15.92;100.00;100268.25;5288458;28;20024;-75
2023/08/06 03:17:40;;;;;;;12.93;5.20;;;;;;;15.90;100.00;100270.31;5289003;28;20016;-74
2023/08/06 03:20:11;;;;;;;14.45;5.15;;;;;;;15.91;100.00;100274.69;5288784;28;20496;-74
2023/08/06 03:22:42;;;;;;;10.13;4.90;;;;;;;15.88;100.00;100277.00;5288876;28;20024;-75
2023/08/06 03:25:13;;;;;;;12.10;5.07;;;;;;;15.90;100.00;100270.31;5288712;28;20032;-75
2023/08/06 03:27:43;;;;;;;11.35;5.85;;;;;;;15.91;100.00;100281.97;5287860;28;20034;-75
2023/08/06 03:30:14;;;;;;;12.50;5.22;;;;;;;15.88;100.00;100279.72;5288708;28;20031;-74
2023/08/06 03:32:45;;;;;;;10.05;5.57;;;;;;;15.90;100.00;100288.44;5270637;28;20038;-75
2023/08/06 03:35:15;;;;;;;10.20;5.25;;;;;;;15.90;100.00;100291.13;5288382;28;20361;-75
2023/08/06 03:37:46;;;;;;;13.15;5.35;;;;;;;15.90;100.00;100291.13;5288174;28;20157;-74
2023/08/06 03:40:16;;;;;;;17.65;5.03;;;;;;;15.89;100.00;100290.31;5288115;28;20497;-74
2023/08/06 03:42:47;;;;;;;12.93;5.05;;;;;;;15.88;100.00;100291.34;5288555;28;20020;-75
2023/08/06 03:45:18;;;;;;;11.98;5.95;;;;;;;15.90;100.00;100291.97;5288257;28;20027;-74
2023/08/06 03:47:49;;;;;;;11.27;5.40;;;;;;;15.88;100.00;100291.34;5287806;28;20019;-74
2023/08/06 03:53:46;;;;;;;16.02;6.15;;;;;;;15.87;100.00;100289.72;5279959;28;20042;-75
2023/08/06 03:56:17;;;;;;;14.48;6.43;;;;;;;15.90;100.00;100300.06;5287556;28;20023;-75
2023/08/06 03:58:47;;;;;;;18.33;7.32;;;;;;;15.92;100.00;100305.28;5287937;28;20015;-74
2023/08/06 04:01:18;;;;;;;18.05;7.55;;;;;;;15.93;100.00;100306.94;5287772;28;20050;-75
2023/08/06 04:03:48;;;;;;;17.15;6.70;;;;;;;15.96;100.00;100309.22;5273312;28;20118;-74
2023/08/06 04:06:19;;;;;;;22.02;7.47;;;;;;;15.96;100.00;100320.84;5285235;28;20020;-75
2023/08/06 04:08:49;;;;;;;17.40;7.15;;;;;;;15.98;100.00;100316.09;5276171;28;20102;-74
2023/08/06 04:11:20;;;;;;;19.50;7.68;;;;;;;15.99;100.00;100327.72;5276109;28;20486;-75
2023/08/06 04:13:50;;;;;;;18.13;7.82;;;;;;;16.00;100.00;100323.97;5271327;28;20496;-75
2023/08/06 04:16:21;;;;;;;18.60;7.10;;;;;;;15.98;100.00;100328.78;5286271;28;20022;-75
2023/08/06 04:18:53;;;;;;;16.10;7.05;;;;;;;15.95;100.00;100331.91;5287562;28;20016;-75
2023/08/06 04:21:23;;;;;;;15.20;6.50;;;;;;;15.92;100.00;100338.59;5287272;28;20023;-76
2023/08/06 04:23:54;;;;;;;14.25;5.60;;;;;;;15.90;100.00;100348.78;5268531;28;20043;-76
2023/08/06 04:26:25;;;;;;;5.82;2.65;;;;;;;15.84;100.00;100356.91;5279803;28;20415;-76
2023/08/06 04:28:55;;;;;;;3.83;2.20;;;;;;;15.82;100.00;100359.84;5274741;28;20059;-75
2023/08/06 04:31:26;;;;;;;1.70;0.93;;;;;;;15.74;100.00;100371.69;5287458;28;20058;-75
2023/08/06 04:33:56;;;;;;;1.20;1.00;;;;;;;15.70;100.00;100377.75;5287575;28;20024;-75
2023/08/06 04:36:27;;;;;;;1.30;0.90;;;;;;;15.69;100.00;100376.91;5286147;28;20476;-75
2023/08/06 04:38:57;;;;;;;0.82;0.52;;;;;;;15.66;100.00;100385.47;5287076;28;20032;-75
2023/08/06 04:41:28;;;;;;;1.10;0.65;;;;;;;15.60;100.00;100404.34;5282955;28;20027;-75
2023/08/06 04:43:58;;;;;;;3.20;0.52;;;;;;;15.57;100.00;100402.91;5287066;28;20387;-75
2023/08/06 04:46:29;;;;;;;4.95;0.90;;;;;;;15.53;100.00;100407.91;5286444;28;20032;-75
2023/08/06 04:48:59;;;;;;;3.20;1.35;;;;;;;15.43;100.00;100414.78;5286214;28;20020;-75
2023/08/06 04:51:30;;;;;;;1.90;1.33;;;;;;;15.42;100.00;100432.03;5287100;28;20039;-75
2023/08/06 04:54:01;;;;;;;2.00;1.50;;;;;;;15.38;100.00;100436.19;5286729;28;20038;-75
2023/08/06 04:56:32;;;;;;;6.93;2.38;;;;;;;15.25;100.00;100453.22;5286315;28;20020;-75
2023/08/06 04:59:02;;;;;;;1.98;1.10;;;;;;;14.93;100.00;100455.66;5286606;28;20412;-75
2023/08/06 05:01:33;;;;;;;2.13;1.40;;;;;;;14.94;100.00;100465.41;5286167;28;20032;-74
2023/08/06 05:04:03;;;;;;;3.17;1.52;;;;;;;14.87;100.00;100471.84;5286528;28;20473;-74
2023/08/06 05:06:34;;;;;;;5.70;2.55;;;;;;;14.83;100.00;100467.91;5286258;28;20020;-74
2023/08/06 05:09:06;;;;;;;7.22;3.63;;;;;;;14.86;100.00;100462.06;5279681;28;20024;-74
2023/08/06 05:11:36;;;;;;;11.75;5.15;;;;;;;14.73;100.00;100479.91;5269786;27;20032;-74
2023/08/06 05:14:07;;;;;;;8.40;5.00;;;;;;;14.65;100.00;100484.63;5272436;28;20023;-74
2023/08/06 05:16:37;;;;;;;10.27;5.65;;;;;;;14.67;100.00;100482.59;5284080;28;20418;-74
2023/08/06 05:19:08;;;;;;;12.82;6.65;;;;;;;14.61;100.00;100495.03;5274097;28;20110;-74
2023/08/06 05:21:38;;;;;;;19.88;7.22;;;;;;;14.70;100.00;100504.59;5286513;28;20453;-74
2023/08/06 05:24:09;;;;;;;15.18;7.68;;;;;;;14.67;100.00;100520.38;5286220;28;20527;-74
2023/08/06 05:26:40;;;;;;;11.60;7.47;;;;;;;14.62;100.00;100520.16;5284962;28;20545;-74
2023/08/06 05:29:10;;;;;;;16.10;7.50;;;;;;;14.76;100.00;100528.13;5286012;28;20044;-74
2023/08/06 05:31:41;;;;;;;15.32;6.57;;;;;;;14.69;100.00;100531.81;5286061;28;20027;-74
2023/08/06 05:34:11;;;;;;;16.23;7.75;;;;;;;14.80;100.00;100542.03;5286004;28;20441;-74
2023/08/06 05:36:42;;;;;;;18.75;8.50;;;;;;;14.75;100.00;100545.31;5285337;28;20027;-74
2023/08/06 05:39:12;;;;;;;14.90;7.38;;;;;;;14.74;100.00;100556.34;5271944;28;20008;-74
2023/08/06 05:41:43;;;;;;;15.65;7.00;;;;;;;14.81;100.00;100567.16;5278513;28;20393;-74
2023/08/06 05:44:13;;;;;;;14.98;5.28;;;;;;;14.72;100.00;100561.94;5280508;28;20034;-74
2023/08/06 05:46:44;;;;;;;15.18;5.32;;;;;;;14.77;100.00;100580.25;5285103;28;20434;-75
2023/08/06 05:49:15;;;;;;;15.90;5.45;;;;;;;14.78;100.00;100584.63;5285122;28;20042;-74
2023/08/06 05:51:45;;;;;;;15.18;4.88;;;;;;;14.77;100.00;100585.66;5285842;28;20481;-74
2023/08/06 05:54:16;;;;;;;11.27;4.50;;;;;;;14.71;100.00;100594.56;5274583;28;20422;-74
2023/08/06 05:56:46;;;;;;;17.33;4.95;;;;;;;14.79;100.00;100607.88;5284596;28;20045;-74
2023/08/06 05:59:17;;;;;;;13.02;4.60;;;;;;;14.68;100.00;100609.28;5285733;28;20020;-74
2023/08/06 06:01:47;;;;;;;9.15;3.67;;;;;;;14.62;100.00;100610.06;5285308;28;20441;-75
2023/08/06 06:04:18;;;;;;;9.30;3.42;;;;;;;14.60;100.00;100612.13;5272308;28;20028;-74
2023/08/06 06:06:49;;;;;;;18.52;4.72;;;;;;;14.68;100.00;100625.47;5284988;28;20042;-74
2023/08/06 06:09:19;;;;;;;13.63;3.67;;;;;;;14.66;100.00;100632.94;5285485;28;20024;-74
2023/08/06 06:11:50;;;;;;;12.52;4.80;;;;;;;14.66;100.00;100637.50;5267169;28;20019;-74
2023/08/06 06:14:20;;;;;;;13.48;3.85;;;;;;;14.66;100.00;100632.94;5284959;28;20439;-74
2023/08/06 06:16:52;;;;;;;15.50;4.35;;;;;;;14.72;100.00;100656.44;5280432;28;20197;-74
2023/08/06 06:19:23;;;;;;;11.82;4.20;;;;;;;14.77;100.00;100658.56;5274849;28;20030;-74
2023/08/06 06:21:54;;;;;;;8.63;4.03;;;;;;;14.83;100.00;100660.47;5280410;28;20035;-74
2023/08/06 06:24:24;;;;;;;14.30;4.45;;;;;;;14.86;100.00;100668.19;5272861;28;20035;-74
2023/08/06 06:26:55;;;;;;;14.52;4.80;;;;;;;14.89;100.00;100670.47;5282386;28;20016;-74
2023/08/06 06:29:26;;;;;;;18.55;5.85;;;;;;;14.96;100.00;100665.09;5287733;28;20034;-74
2023/08/06 06:31:56;;;;;;;19.02;5.80;;;;;;;14.92;100.00;100686.28;5282732;28;20028;-74
2023/08/06 06:34:27;;;;;;;14.02;5.90;;;;;;;15.00;100.00;100691.50;5266710;28;20028;-74
2023/08/06 06:36:57;;;;;;;15.27;5.50;;;;;;;15.08;100.00;100690.53;5286031;28;20032;-74
2023/08/06 06:39:28;;;;;;;17.48;6.57;;;;;;;15.17;100.00;100692.03;5287277;28;20019;-74
2023/08/06 06:41:58;;;;;;;15.65;5.95;;;;;;;15.22;100.00;100697.69;5274010;28;20552;-74
2023/08/06 06:44:29;;;;;;;20.75;5.93;;;;;;;15.35;100.00;100706.88;5287853;28;20115;-74
2023/08/06 06:46:59;;;;;;;17.30;6.22;;;;;;;15.41;100.00;100706.06;5286719;28;20023;-74
2023/08/06 06:49:30;;;;;;;16.15;4.90;;;;;;;15.43;100.00;100706.72;5287379;28;20053;-74
2023/08/06 06:52:00;;;;;;;19.52;5.72;;;;;;;15.39;100.00;100719.78;5287130;28;20473;-73
2023/08/06 06:54:31;;;;;;;11.05;4.70;;;;;;;15.46;100.00;100722.50;5287522;28;20019;-74
2023/08/06 06:57:01;;;;;;;16.05;4.95;;;;;;;15.48;100.00;100729.41;5275627;28;20020;-74
2023/08/06 06:59:32;;;;;;;16.80;4.43;;;;;;;15.45;100.00;100723.53;5284569;28;20031;-74
2023/08/06 07:02:02;;;;;;;14.43;4.72;;;;;;;15.46;100.00;100733.31;5287147;28;20073;-74
2023/08/06 07:04:33;;;;;;;16.80;4.68;;;;;;;15.44;100.00;100733.53;5268818;28;20028;-74
2023/08/06 07:07:04;;;;;;;12.50;4.43;;;;;;;15.52;100.00;100737.94;5285967;28;20028;-73
2023/08/06 07:09:34;;;;;;;18.45;4.95;;;;;;;15.49;100.00;100738.34;5274387;28;20030;-73
2023/08/06 07:12:05;;;;;;;12.13;4.03;;;;;;;15.44;100.00;100744.34;5286598;28;20043;-74
2023/08/06 07:14:36;;;;;;;13.70;4.15;;;;;;;15.41;100.00;100741.19;5287664;28;20408;-74
2023/08/06 07:17:07;;;;;;;18.75;4.43;;;;;;;15.26;100.00;100755.69;5286532;28;20286;-74
2023/08/06 07:19:37;;;;;;;17.42;4.55;;;;;;;15.25;100.00;100750.47;5269345;28;20046;-74
2023/08/06 07:22:08;;;;;;;12.32;4.95;;;;;;;15.30;100.00;100758.81;5286988;28;20183;-74
2023/08/06 07:24:38;;;;;;;14.75;4.05;;;;;;;15.24;100.00;100765.03;5287013;28;20031;-74
2023/08/06 07:27:09;;;;;;;31.73;5.32;;;;;;;15.26;100.00;100768.34;5286422;28;20020;-74
2023/08/06 07:29:39;;;;;;;19.23;4.13;;;;;;;15.35;100.00;100766.34;5286404;28;20101;-74
2023/08/06 07:32:10;;;;;;;12.30;4.40;;;;;;;15.38;100.00;100774.88;5286831;28;20046;-73
2023/08/06 07:34:40;;;;;;;8.32;2.90;;;;;;;15.40;100.00;100780.91;5287006;28;20020;-73
2023/08/06 07:37:11;;;;;;;16.27;3.00;;;;;;;15.27;100.00;100786.25;5286021;28;20552;-74
2023/08/06 07:39:42;;;;;;;13.25;3.30;;;;;;;15.44;100.00;100784.06;5284788;28;20103;-74
2023/08/06 07:42:13;;;;;;;8.02;2.60;;;;;;;15.50;100.00;100785.97;5286954;28;20362;-74
2023/08/06 07:44:43;;;;;;;17.48;2.92;;;;;;;15.43;100.00;100779.69;5286812;28;20038;-74
2023/08/06 07:47:14;;;;;;;9.60;2.65;;;;;;;15.35;100.00;100785.25;5286110;28;20220;-74
2023/08/06 07:49:44;;;;;;;7.90;2.15;;;;;;;15.52;100.00;100790.16;5286355;28;20184;-74
2023/08/06 07:52:15;;;;;;;12.55;1.92;;;;;;;15.46;100.00;100795.50;5286919;28;20440;-74
2023/08/06 07:54:45;;;;;;;9.82;2.03;;;;;;;15.45;100.00;100791.97;5272912;28;20030;-73
2023/08/06 07:57:16;;;;;;;15.45;2.08;;;;;;;15.42;100.00;100794.25;5285397;28;20023;-73
2023/08/06 07:59:47;;;;;;;13.20;1.80;;;;;;;15.41;100.00;100787.16;5286120;28;20064;-74
2023/08/06 08:02:17;;;;;;;8.77;1.98;;;;;;;15.38;100.00;100799.22;5286215;28;20029;-74
2023/08/06 08:04:48;;;;;;;8.52;1.85;;;;;;;15.55;100.00;100797.00;5285820;28;20468;-74
2023/08/06 08:07:19;;;;;;;13.52;2.22;;;;;;;15.66;100.00;100796.50;5282348;28;20031;-74
2023/08/06 08:09:50;;;;;;;14.57;2.65;;;;;;;15.71;100.00;100788.63;5275474;28;20393;-75
2023/08/06 08:12:20;;;;;;;11.77;1.67;;;;;;;15.82;100.00;100791.78;5267775;28;20016;-74
2023/08/06 08:14:51;;;;;;;16.73;2.60;;;;;;;15.82;100.00;100794.47;5276791;28;20024;-74
2023/08/06 08:17:21;;;;;;;11.82;2.03;;;;;;;15.89;100.00;100793.47;5278925;28;20020;-74
2023/08/06 08:19:52;;;;;;;13.52;2.65;;;;;;;15.98;100.00;100800.38;5278316;28;20135;-74
2023/08/06 08:22:22;;;;;;;9.07;2.00;;;;;;;16.00;100.00;100795.56;5265039;28;20032;-74
2023/08/06 08:24:52;;;;;;;13.15;2.08;;;;;;;16.12;100.00;100801.25;5278387;28;20027;-74
2023/08/06 08:27:23;;;;;;;15.80;2.50;;;;;;;16.23;100.00;100803.34;5254800;28;20020;-74
2023/08/06 08:29:53;;;;;;;13.80;1.83;;;;;;;16.26;100.00;100805.63;5284815;28;20026;-75
2023/08/06 08:32:24;;;;;;;9.80;1.70;;;;;;;16.23;100.00;100810.66;5285851;28;20016;-74
2023/08/06 08:34:54;;;;;;;13.68;2.10;;;;;;;16.22;100.00;100809.81;5285363;28;20028;-74
2023/08/06 08:37:25;;;;;;;13.90;1.92;;;;;;;16.26;100.00;100811.03;5284790;28;20019;-74
2023/08/06 08:39:56;;;;;;;6.45;1.83;;;;;;;16.30;100.00;100806.06;5285243;28;20020;-74
2023/08/06 08:42:26;;;;;;;19.83;3.30;;;;;;;16.19;100.00;100814.78;5284932;28;20090;-74
2023/08/06 08:44:57;;;;;;;9.45;1.80;;;;;;;16.11;100.00;100813.09;5285000;28;20056;-74
2023/08/06 08:47:28;;;;;;;9.18;1.50;;;;;;;16.01;100.00;100812.63;5284691;28;20297;-74
2023/08/06 08:50:00;;;;;;;13.98;1.85;;;;;;;15.88;100.00;100816.16;5277443;28;20031;-74
2023/08/06 08:52:31;;;;;;;11.35;2.33;;;;;;;15.69;100.00;100827.69;5279204;28;20031;-74
2023/08/06 08:55:02;;;;;;;10.90;2.00;;;;;;;15.61;100.00;100820.53;5284903;28;20197;-74
2023/08/06 08:57:33;;;;;;;14.02;2.20;;;;;;;15.58;100.00;100830.94;5284358;28;20016;-74
2023/08/06 09:00:04;;;;;;;11.45;1.65;;;;;;;15.67;100.00;100822.50;5285144;28;20389;-74
2023/08/06 09:02:37;;;;;;;13.70;2.17;;;;;;;15.69;100.00;100833.94;5266863;28;20069;-74
2023/08/06 09:05:09;;;;;;;12.40;1.92;;;;;;;15.84;100.00;100843.78;5284742;28;20492;-74
2023/08/06 09:07:44;;;;;;;10.50;1.90;;;;;;;15.96;100.00;100840.28;5283973;28;20039;-74
2023/08/06 09:10:17;;;;;;;7.65;1.85;;;;;;;16.14;100.00;100834.34;5284505;28;20072;-74
2023/08/06 09:12:50;;;;;;;18.15;2.03;;;;;;;16.14;100.00;100841.63;5284954;28;20034;-73
2023/08/06 09:15:24;;;;;;;11.07;2.53;;;;;;;16.12;100.00;100839.13;5275715;28;20024;-74
2023/08/06 09:17:55;;;;;;;15.23;2.28;;;;;;;16.11;100.00;100834.75;5284265;28;20051;-74
2023/08/06 09:20:26;;;;;;;8.50;2.42;;;;;;;16.26;100.00;100832.69;5281121;28;20435;-74
2023/08/06 09:22:58;;;;;;;11.10;2.05;;;;;;;16.26;100.00;100840.81;5274887;28;20035;-74
2023/08/06 09:25:31;;;;;;;11.23;2.08;;;;;;;16.35;100.00;100840.66;5284140;28;20034;-74
2023/08/06 09:28:02;;;;;;;12.38;1.52;;;;;;;16.43;100.00;100838.59;5283659;28;20035;-74
2023/08/06 09:30:36;;;;;;;15.40;1.67;;;;;;;16.40;100.00;100830.03;5277153;28;20139;-74
2023/08/06 09:36:08;;;;;;;11.35;1.55;;;;;;;16.15;100.00;100844.13;5283976;28;20031;-74
2023/08/06 09:38:40;;;;;;;15.10;2.33;;;;;;;16.26;100.00;100840.81;5277092;28;20020;-74
2023/08/06 09:41:25;;;;;;;16.08;2.55;;;;;;;16.12;100.00;100849.13;5277506;28;20033;-74
2023/08/06 09:43:56;;;;;;;9.45;2.10;;;;;;;15.94;100.00;100863.19;5274677;28;20484;-74
2023/08/06 09:46:28;;;;;;;9.35;2.15;;;;;;;15.94;100.00;100863.19;5266542;28;20163;-74
2023/08/06 09:48:59;;;;;;;6.47;1.65;;;;;;;15.71;100.00;100869.75;5272265;28;20426;-74
2023/08/06 09:51:29;;;;;;;7.50;1.55;;;;;;;15.60;100.00;100867.56;5282343;28;20202;-74
2023/08/06 09:54:01;;;;;;;9.55;1.65;;;;;;;15.60;100.00;100872.97;5284572;28;20502;-74
2023/08/06 09:56:37;;;;;;;8.00;1.33;;;;;;;15.57;100.00;100878.78;5283281;28;20052;-74
2023/08/06 09:59:08;;;;;;;8.73;0.90;;;;;;;15.49;100.00;100877.06;5284239;28;20472;-74
2023/08/06 10:01:38;;;;;;;4.82;0.93;;;;;;;15.35;100.00;100877.97;5283305;28;20188;-74
2023/08/06 10:04:11;;;;;;;6.40;1.95;;;;;;;15.41;100.00;100885.34;5284019;28;20031;-74
2023/08/06 10:06:43;;;;;;;9.70;1.13;;;;;;;15.38;100.00;100891.13;5283596;28;20031;-74
2023/08/06 10:09:13;;;;;;;9.13;1.42;;;;;;;15.40;100.00;100901.72;5269878;28;20110;-74
2023/08/06 10:11:49;;;;;;;5.75;1.17;;;;;;;15.44;100.00;100901.13;5270982;28;20176;-74
2023/08/06 10:14:26;;;;;;;5.35;1.27;;;;;;;15.50;100.00;100915.72;5283778;28;20027;-74
2023/08/06 10:16:59;;;;;;;8.20;1.50;;;;;;;15.39;100.00;100918.97;5281262;28;20262;-74
2023/08/06 10:19:31;;;;;;;12.40;2.05;;;;;;;15.27;100.00;100919.53;5272656;28;20031;-74
2023/08/06 10:22:12;;;;;;;16.05;2.10;;;;;;;15.43;100.00;100921.09;5284474;28;20055;-74
2023/08/06 10:24:55;;;;;;;9.88;1.30;;;;;;;15.38;100.00;100928.97;5265906;28;20435;-74
2023/08/06 10:27:53;;;;;;;10.23;1.30;;;;;;;15.52;100.00;100930.75;5283064;28;20385;-74
2023/08/06 10:30:44;;;;;;;9.40;1.52;;;;;;;15.41;100.00;100925.88;5270222;28;20050;-74
2023/08/06 10:33:16;;;;;;;6.93;1.13;;;;;;;15.42;100.00;100922.13;5284132;28;20035;-74
2023/08/06 10:35:49;;;;;;;6.45;1.17;;;;;;;15.58;100.00;100936.41;5283572;28;20386;-74
2023/08/06 10:38:21;;;;;;;11.70;1.77;;;;;;;15.61;100.00;100938.69;5270358;28;20019;-73
2023/08/06 10:40:52;;;;;;;11.90;1.77;;;;;;;15.64;100.00;100935.63;5284221;28;20031;-74
2023/08/06 10:43:43;;;;;;;11.18;1.40;;;;;;;15.77;100.00;100933.03;5284108;28;20024;-73
2023/08/06 10:46:27;;;;;;;7.75;1.52;;;;;;;15.96;100.00;100948.53;5281216;28;20031;-73
2023/08/06 10:48:58;;;;;;;7.53;2.05;;;;;;;15.78;100.00;100951.75;5273497;28;20055;-74
2023/08/06 10:51:29;;;;;;;7.18;1.50;;;;;;;15.88;100.00;100940.59;5283227;28;20429;-74
2023/08/06 10:53:59;;;;;;;9.30;1.25;;;;;;;15.69;100.00;100961.06;5283814;28;20024;-74
2023/08/06 10:56:31;;;;;;;8.63;1.50;;;;;;;15.62;100.00;100968.25;5283157;28;20030;-74
2023/08/06 10:59:01;;;;;;;8.60;1.83;;;;;;;15.73;100.00;100970.44;5283494;28;20235;-74
2023/08/06 11:01:34;;;;;;;7.85;1.50;;;;;;;15.78;100.00;100954.47;5283745;28;20020;-74
2023/08/06 11:04:05;;;;;;;8.15;1.20;;;;;;;15.85;100.00;100964.47;5270016;28;20020;-74
2023/08/06 11:06:35;;;;;;;8.35;1.38;;;;;;;15.76;100.00;100966.50;5283588;28;20496;-74
2023/08/06 11:09:06;;;;;;;6.22;1.75;;;;;;;15.73;100.00;100978.56;5269547;28;20549;-74
2023/08/06 11:11:37;;;;;;;3.72;0.85;;;;;;;15.66;100.00;100969.56;5271992;28;20085;-73
2023/08/06 11:14:15;;;;;;;8.30;1.38;;;;;;;15.74;100.00;100971.28;5283769;28;20285;-74
2023/08/06 11:16:45;;;;;;;15.52;1.38;;;;;;;15.95;100.00;100981.19;5286330;28;20032;-74
2023/08/06 11:19:16;;;;;;;4.78;1.25;;;;;;;15.96;100.00;100962.06;5279595;28;20396;-74
2023/08/06 11:21:47;;;;;;;7.85;0.90;;;;;;;16.10;100.00;100970.25;5280169;28;20055;-74
2023/08/06 11:24:18;;;;;;;8.95;0.88;;;;;;;16.14;100.00;100966.97;5275287;28;20106;-73
2023/08/06 11:26:48;;;;;;;6.03;0.60;;;;;;;16.12;100.00;100979.03;5285379;28;20016;-74
2023/08/06 11:29:19;;;;;;;5.85;0.90;;;;;;;16.19;100.00;100979.91;5286119;28;20051;-74
2023/08/06 11:31:49;;;;;;;1.17;0.47;;;;;;;16.21;100.00;100986.75;5285126;28;20145;-74
2023/08/06 11:34:20;;;;;;;8.32;1.35;;;;;;;16.35;100.00;100978.72;5286761;28;20132;-74
2023/08/06 11:36:50;;;;;;;4.18;0.60;;;;;;;16.50;100.00;100982.97;5284787;28;20020;-74
2023/08/06 11:39:21;;;;;;;8.40;1.23;;;;;;;16.64;100.00;100991.16;5285501;28;20107;-74
2023/08/06 11:41:51;;;;;;;4.20;1.08;;;;;;;16.70;100.00;100987.63;5285762;28;20026;-73